sensor_id;sensor_type;location;lat;lon;timestamp;temperature;humidity
34147;DHT22;20423;49.448;9.056;2023-02-01T00:01:54;2.00;99.90
34147;DHT22;20423;49.448;9.056;2023-02-01T00:04:20;2.00;99.90
34147;DHT22;20423;49.448;9.056;2023-02-01T00:06:46;2.00;99.90
34147;DHT22;20423;49.448;9.056;2023-02-01T00:09:12;2.10;99.90
34147;DHT22;20423;49.448;9.056;2023-02-01T00:11:38;2.10;99.90
34147;DHT22;20423;49.448;9.056;2023-02-01T00:14:04;2.00;99.90
34147;DHT22;20423;49.448;9.056;2023-02-01T00:16:31;2.10;99.90
34147;DHT22;20423;49.448;9.056;2023-02-01T00:19:20;2.10;99.90
34147;DHT22;20423;49.448;9.056;2023-02-01T00:21:45;2.10;99.90
34147;DHT22;20423;49.448;9.056;2023-02-01T00:24:48;2.10;99.90
34147;DHT22;20423;49.448;9.056;2023-02-01T00:27:14;2.10;99.90
34147;DHT22;20423;49.448;9.056;2023-02-01T00:29:43;2.10;99.90
34147;DHT22;20423;49.448;9.056;2023-02-01T00:32:10;2.10;99.90
34147;DHT22;20423;49.448;9.056;2023-02-01T00:34:42;2.10;99.90
34147;DHT22;20423;49.448;9.056;2023-02-01T00:37:07;2.10;99.90
34147;DHT22;20423;49.448;9.056;2023-02-01T00:39:33;2.10;99.90
34147;DHT22;20423;49.448;9.056;2023-02-01T00:42:00;2.20;99.90
34147;DHT22;20423;49.448;9.056;2023-02-01T00:44:26;2.20;99.90
34147;DHT22;20423;49.448;9.056;2023-02-01T00:46:52;2.20;99.90
34147;DHT22;20423;49.448;9.056;2023-02-01T00:49:18;2.20;99.90
34147;DHT22;20423;49.448;9.056;2023-02-01T00:55:03;2.20;99.90
34147;DHT22;20423;49.448;9.056;2023-02-01T00:57:29;2.10;99.90
34147;DHT22;20423;49.448;9.056;2023-02-01T00:59:54;2.20;99.90
34147;DHT22;20423;49.448;9.056;2023-02-01T01:02:20;2.10;99.90
34147;DHT22;20423;49.448;9.056;2023-02-01T01:04:46;2.10;99.90
34147;DHT22;20423;49.448;9.056;2023-02-01T01:07:12;2.20;99.90
34147;DHT22;20423;49.448;9.056;2023-02-01T01:09:38;2.20;99.90
34147;DHT22;20423;49.448;9.056;2023-02-01T01:12:16;2.20;99.90
34147;DHT22;20423;49.448;9.056;2023-02-01T01:17:59;2.20;99.90
34147;DHT22;20423;49.448;9.056;2023-02-01T01:20:25;2.30;99.90
34147;DHT22;20423;49.448;9.056;2023-02-01T01:22:51;2.20;99.90
34147;DHT22;20423;49.448;9.056;2023-02-01T01:25:17;2.20;99.90
34147;DHT22;20423;49.448;9.056;2023-02-01T01:27:42;2.20;99.90
34147;DHT22;20423;49.448;9.056;2023-02-01T01:30:08;2.20;99.90
34147;DHT22;20423;49.448;9.056;2023-02-01T01:32:34;2.30;99.90
34147;DHT22;20423;49.448;9.056;2023-02-01T01:35:00;2.20;99.90
34147;DHT22;20423;49.448;9.056;2023-02-01T01:37:26;2.20;99.90
34147;DHT22;20423;49.448;9.056;2023-02-01T01:39:51;2.20;99.90
34147;DHT22;20423;49.448;9.056;2023-02-01T01:42:17;2.30;99.90
34147;DHT22;20423;49.448;9.056;2023-02-01T01:45:04;2.30;99.90
34147;DHT22;20423;49.448;9.056;2023-02-01T01:47:40;2.20;99.90
34147;DHT22;20423;49.448;9.056;2023-02-01T01:53:18;2.30;99.90
34147;DHT22;20423;49.448;9.056;2023-02-01T01:55:46;2.30;99.90
34147;DHT22;20423;49.448;9.056;2023-02-01T01:58:33;2.30;99.90
34147;DHT22;20423;49.448;9.056;2023-02-01T02:01:00;2.30;99.90
34147;DHT22;20423;49.448;9.056;2023-02-01T02:03:35;2.20;99.90
34147;DHT22;20423;49.448;9.056;2023-02-01T02:06:06;2.30;99.90
34147;DHT22;20423;49.448;9.056;2023-02-01T02:08:39;2.30;99.90
34147;DHT22;20423;49.448;9.056;2023-02-01T02:11:07;2.30;99.90
34147;DHT22;20423;49.448;9.056;2023-02-01T02:13:36;2.30;99.90
34147;DHT22;20423;49.448;9.056;2023-02-01T02:27:51;2.30;99.90
34147;DHT22;20423;49.448;9.056;2023-02-01T02:36:00;2.20;99.90
34147;DHT22;20423;49.448;9.056;2023-02-01T02:41:33;2.20;99.90
34147;DHT22;20423;49.448;9.056;2023-02-01T02:47:46;2.20;99.90
34147;DHT22;20423;49.448;9.056;2023-02-01T02:50:17;2.20;99.90
34147;DHT22;20423;49.448;9.056;2023-02-01T02:56:42;2.20;99.90
34147;DHT22;20423;49.448;9.056;2023-02-01T02:59:28;2.20;99.90
34147;DHT22;20423;49.448;9.056;2023-02-01T03:02:15;2.20;99.90
34147;DHT22;20423;49.448;9.056;2023-02-01T03:05:00;2.20;99.90
34147;DHT22;20423;49.448;9.056;2023-02-01T03:12:54;2.20;99.90
34147;DHT22;20423;49.448;9.056;2023-02-01T03:15:54;2.20;99.90
34147;DHT22;20423;49.448;9.056;2023-02-01T03:18:28;2.20;99.90
34147;DHT22;20423;49.448;9.056;2023-02-01T03:20:59;2.20;99.90
34147;DHT22;20423;49.448;9.056;2023-02-01T03:24:04;2.20;99.90
34147;DHT22;20423;49.448;9.056;2023-02-01T03:26:36;2.30;99.90
34147;DHT22;20423;49.448;9.056;2023-02-01T03:29:21;2.20;99.90
34147;DHT22;20423;49.448;9.056;2023-02-01T03:31:49;2.20;99.90
34147;DHT22;20423;49.448;9.056;2023-02-01T03:34:16;2.20;99.90
34147;DHT22;20423;49.448;9.056;2023-02-01T03:36:48;2.20;99.90
34147;DHT22;20423;49.448;9.056;2023-02-01T03:39:23;2.20;99.90
34147;DHT22;20423;49.448;9.056;2023-02-01T03:41:58;2.20;99.90
34147;DHT22;20423;49.448;9.056;2023-02-01T03:47:06;2.20;99.90
34147;DHT22;20423;49.448;9.056;2023-02-01T03:49:42;2.20;99.90
34147;DHT22;20423;49.448;9.056;2023-02-01T03:52:20;2.20;99.90
34147;DHT22;20423;49.448;9.056;2023-02-01T03:54:51;2.20;99.90
34147;DHT22;20423;49.448;9.056;2023-02-01T03:57:23;2.20;99.90
34147;DHT22;20423;49.448;9.056;2023-02-01T04:00:22;2.20;99.90
34147;DHT22;20423;49.448;9.056;2023-02-01T04:02:50;2.20;99.90
34147;DHT22;20423;49.448;9.056;2023-02-01T04:05:17;2.20;99.90
34147;DHT22;20423;49.448;9.056;2023-02-01T04:07:51;2.20;99.90
34147;DHT22;20423;49.448;9.056;2023-02-01T04:10:17;2.30;99.90
34147;DHT22;20423;49.448;9.056;2023-02-01T04:12:43;2.30;99.90
34147;DHT22;20423;49.448;9.056;2023-02-01T04:15:15;2.30;99.90
34147;DHT22;20423;49.448;9.056;2023-02-01T04:17:40;2.40;99.90
34147;DHT22;20423;49.448;9.056;2023-02-01T04:20:06;2.30;99.90
34147;DHT22;20423;49.448;9.056;2023-02-01T04:22:32;2.40;99.90
34147;DHT22;20423;49.448;9.056;2023-02-01T04:24:58;2.40;99.90
34147;DHT22;20423;49.448;9.056;2023-02-01T04:27:23;2.40;99.90
34147;DHT22;20423;49.448;9.056;2023-02-01T04:30:20;2.30;99.90
34147;DHT22;20423;49.448;9.056;2023-02-01T04:32:46;2.40;99.90
34147;DHT22;20423;49.448;9.056;2023-02-01T04:35:24;2.30;99.90
34147;DHT22;20423;49.448;9.056;2023-02-01T04:37:50;2.30;99.90
34147;DHT22;20423;49.448;9.056;2023-02-01T04:40:15;2.30;99.90
34147;DHT22;20423;49.448;9.056;2023-02-01T04:42:41;2.30;99.90
34147;DHT22;20423;49.448;9.056;2023-02-01T04:45:07;2.30;99.90
34147;DHT22;20423;49.448;9.056;2023-02-01T04:47:34;2.40;99.90
34147;DHT22;20423;49.448;9.056;2023-02-01T04:50:00;2.30;99.90
34147;DHT22;20423;49.448;9.056;2023-02-01T04:52:51;2.40;99.90
34147;DHT22;20423;49.448;9.056;2023-02-01T04:55:16;2.40;99.90
34147;DHT22;20423;49.448;9.056;2023-02-01T04:57:42;2.40;99.90
34147;DHT22;20423;49.448;9.056;2023-02-01T05:00:08;2.40;99.90
34147;DHT22;20423;49.448;9.056;2023-02-01T05:02:34;2.40;99.90
34147;DHT22;20423;49.448;9.056;2023-02-01T05:05:01;2.40;99.90
34147;DHT22;20423;49.448;9.056;2023-02-01T05:07:26;2.40;99.90
34147;DHT22;20423;49.448;9.056;2023-02-01T05:09:52;2.40;99.90
34147;DHT22;20423;49.448;9.056;2023-02-01T05:12:18;2.40;99.90
34147;DHT22;20423;49.448;9.056;2023-02-01T05:15:02;2.40;99.90
34147;DHT22;20423;49.448;9.056;2023-02-01T05:17:28;2.40;99.90
34147;DHT22;20423;49.448;9.056;2023-02-01T05:19:54;2.40;99.90
34147;DHT22;20423;49.448;9.056;2023-02-01T05:22:21;2.40;99.90
34147;DHT22;20423;49.448;9.056;2023-02-01T05:24:46;2.40;99.90
34147;DHT22;20423;49.448;9.056;2023-02-01T05:27:12;2.40;99.90
34147;DHT22;20423;49.448;9.056;2023-02-01T05:29:38;2.40;99.90
34147;DHT22;20423;49.448;9.056;2023-02-01T05:32:04;2.30;99.90
34147;DHT22;20423;49.448;9.056;2023-02-01T05:34:29;2.40;99.90
34147;DHT22;20423;49.448;9.056;2023-02-01T05:36:55;2.30;99.90
34147;DHT22;20423;49.448;9.056;2023-02-01T05:39:21;2.30;99.90
34147;DHT22;20423;49.448;9.056;2023-02-01T05:41:46;2.30;99.90
34147;DHT22;20423;49.448;9.056;2023-02-01T05:44:12;2.20;99.90
34147;DHT22;20423;49.448;9.056;2023-02-01T05:46:38;2.10;99.90
34147;DHT22;20423;49.448;9.056;2023-02-01T05:49:04;2.10;99.90
34147;DHT22;20423;49.448;9.056;2023-02-01T05:51:30;2.10;99.90
34147;DHT22;20423;49.448;9.056;2023-02-01T05:53:56;2.10;99.90
34147;DHT22;20423;49.448;9.056;2023-02-01T05:56:21;2.10;99.90
34147;DHT22;20423;49.448;9.056;2023-02-01T05:58:47;2.10;99.90
34147;DHT22;20423;49.448;9.056;2023-02-01T06:01:13;2.10;99.90
34147;DHT22;20423;49.448;9.056;2023-02-01T06:03:39;2.10;99.90
34147;DHT22;20423;49.448;9.056;2023-02-01T06:06:04;2.10;99.90
34147;DHT22;20423;49.448;9.056;2023-02-01T06:08:30;2.10;99.90
34147;DHT22;20423;49.448;9.056;2023-02-01T06:11:00;2.10;99.90
34147;DHT22;20423;49.448;9.056;2023-02-01T06:13:27;2.10;99.90
34147;DHT22;20423;49.448;9.056;2023-02-01T06:15:52;2.00;99.90
34147;DHT22;20423;49.448;9.056;2023-02-01T06:18:18;2.00;99.90
34147;DHT22;20423;49.448;9.056;2023-02-01T06:20:44;2.00;99.90
34147;DHT22;20423;49.448;9.056;2023-02-01T06:23:10;2.00;99.90
34147;DHT22;20423;49.448;9.056;2023-02-01T06:25:36;2.00;99.90
34147;DHT22;20423;49.448;9.056;2023-02-01T06:28:03;2.10;99.90
34147;DHT22;20423;49.448;9.056;2023-02-01T06:30:31;2.00;99.90
34147;DHT22;20423;49.448;9.056;2023-02-01T06:32:57;2.00;99.90
34147;DHT22;20423;49.448;9.056;2023-02-01T06:35:23;2.10;99.90
34147;DHT22;20423;49.448;9.056;2023-02-01T06:37:48;2.10;99.90
34147;DHT22;20423;49.448;9.056;2023-02-01T06:40:14;2.10;99.90
34147;DHT22;20423;49.448;9.056;2023-02-01T06:43:05;2.20;99.90
34147;DHT22;20423;49.448;9.056;2023-02-01T06:45:31;2.20;99.90
34147;DHT22;20423;49.448;9.056;2023-02-01T06:47:57;2.20;99.90
34147;DHT22;20423;49.448;9.056;2023-02-01T06:50:23;2.20;99.90
34147;DHT22;20423;49.448;9.056;2023-02-01T06:52:49;2.20;99.90
34147;DHT22;20423;49.448;9.056;2023-02-01T06:55:14;2.20;99.90
34147;DHT22;20423;49.448;9.056;2023-02-01T06:57:41;2.20;99.90
34147;DHT22;20423;49.448;9.056;2023-02-01T07:00:07;2.20;99.90
34147;DHT22;20423;49.448;9.056;2023-02-01T07:02:33;2.30;99.90
34147;DHT22;20423;49.448;9.056;2023-02-01T07:04:59;2.30;99.90
34147;DHT22;20423;49.448;9.056;2023-02-01T07:07:25;2.30;99.90
34147;DHT22;20423;49.448;9.056;2023-02-01T07:09:50;2.30;99.90
34147;DHT22;20423;49.448;9.056;2023-02-01T07:12:16;2.40;99.90
34147;DHT22;20423;49.448;9.056;2023-02-01T07:14:54;2.40;99.90
34147;DHT22;20423;49.448;9.056;2023-02-01T07:17:20;2.40;99.90
34147;DHT22;20423;49.448;9.056;2023-02-01T07:19:45;2.40;99.90
34147;DHT22;20423;49.448;9.056;2023-02-01T07:22:11;2.40;99.90
34147;DHT22;20423;49.448;9.056;2023-02-01T07:24:37;2.40;99.90
34147;DHT22;20423;49.448;9.056;2023-02-01T07:27:02;2.40;99.90
34147;DHT22;20423;49.448;9.056;2023-02-01T07:29:28;2.40;99.90
34147;DHT22;20423;49.448;9.056;2023-02-01T07:31:54;2.40;99.90
34147;DHT22;20423;49.448;9.056;2023-02-01T07:34:19;2.40;99.90
34147;DHT22;20423;49.448;9.056;2023-02-01T07:36:45;2.50;99.90
34147;DHT22;20423;49.448;9.056;2023-02-01T07:39:11;2.50;99.90
34147;DHT22;20423;49.448;9.056;2023-02-01T07:41:37;2.50;99.90
34147;DHT22;20423;49.448;9.056;2023-02-01T07:44:03;2.60;99.90
34147;DHT22;20423;49.448;9.056;2023-02-01T07:46:28;2.50;99.90
34147;DHT22;20423;49.448;9.056;2023-02-01T07:48:55;2.60;99.90
34147;DHT22;20423;49.448;9.056;2023-02-01T07:51:30;2.70;99.90
34147;DHT22;20423;49.448;9.056;2023-02-01T07:57:43;2.70;99.90
34147;DHT22;20423;49.448;9.056;2023-02-01T08:00:09;2.60;99.90
34147;DHT22;20423;49.448;9.056;2023-02-01T08:02:54;2.70;99.90
34147;DHT22;20423;49.448;9.056;2023-02-01T08:09:13;2.60;99.90
34147;DHT22;20423;49.448;9.056;2023-02-01T08:12:02;2.60;99.90
34147;DHT22;20423;49.448;9.056;2023-02-01T08:14:27;2.60;99.90
34147;DHT22;20423;49.448;9.056;2023-02-01T08:17:27;2.60;99.90
34147;DHT22;20423;49.448;9.056;2023-02-01T08:19:54;2.80;99.90
34147;DHT22;20423;49.448;9.056;2023-02-01T08:22:20;2.80;99.90
34147;DHT22;20423;49.448;9.056;2023-02-01T08:24:49;2.80;99.90
34147;DHT22;20423;49.448;9.056;2023-02-01T08:27:15;2.80;99.90
34147;DHT22;20423;49.448;9.056;2023-02-01T08:29:44;2.90;99.90
34147;DHT22;20423;49.448;9.056;2023-02-01T08:32:09;2.90;99.90
34147;DHT22;20423;49.448;9.056;2023-02-01T08:34:35;2.90;99.90
34147;DHT22;20423;49.448;9.056;2023-02-01T08:37:01;2.80;99.90
34147;DHT22;20423;49.448;9.056;2023-02-01T08:39:27;2.90;99.90
34147;DHT22;20423;49.448;9.056;2023-02-01T08:41:52;2.80;99.90
34147;DHT22;20423;49.448;9.056;2023-02-01T08:44:36;2.90;99.90
34147;DHT22;20423;49.448;9.056;2023-02-01T08:47:03;2.90;99.90
34147;DHT22;20423;49.448;9.056;2023-02-01T08:49:29;2.90;99.90
34147;DHT22;20423;49.448;9.056;2023-02-01T08:51:55;2.90;99.90
34147;DHT22;20423;49.448;9.056;2023-02-01T08:54:21;3.00;99.90
34147;DHT22;20423;49.448;9.056;2023-02-01T08:56:47;2.90;99.90
34147;DHT22;20423;49.448;9.056;2023-02-01T08:59:13;2.90;99.90
34147;DHT22;20423;49.448;9.056;2023-02-01T09:01:38;2.90;99.90
34147;DHT22;20423;49.448;9.056;2023-02-01T09:04:04;3.00;99.90
34147;DHT22;20423;49.448;9.056;2023-02-01T09:06:30;3.00;99.90
34147;DHT22;20423;49.448;9.056;2023-02-01T09:08:55;3.00;99.90
34147;DHT22;20423;49.448;9.056;2023-02-01T09:11:21;2.90;99.90
34147;DHT22;20423;49.448;9.056;2023-02-01T09:13:48;3.00;99.90
34147;DHT22;20423;49.448;9.056;2023-02-01T09:16:14;3.00;99.90
34147;DHT22;20423;49.448;9.056;2023-02-01T09:18:39;3.00;99.90
34147;DHT22;20423;49.448;9.056;2023-02-01T09:21:06;3.00;99.90
34147;DHT22;20423;49.448;9.056;2023-02-01T09:23:33;3.00;99.90
34147;DHT22;20423;49.448;9.056;2023-02-01T09:26:04;2.90;99.90
34147;DHT22;20423;49.448;9.056;2023-02-01T09:28:30;2.80;99.90
34147;DHT22;20423;49.448;9.056;2023-02-01T09:31:18;2.80;99.90
34147;DHT22;20423;49.448;9.056;2023-02-01T09:33:44;2.80;99.90
34147;DHT22;20423;49.448;9.056;2023-02-01T09:36:09;2.90;99.90
34147;DHT22;20423;49.448;9.056;2023-02-01T09:38:35;2.90;99.90
34147;DHT22;20423;49.448;9.056;2023-02-01T09:41:06;3.00;99.90
34147;DHT22;20423;49.448;9.056;2023-02-01T09:43:55;3.00;99.90
34147;DHT22;20423;49.448;9.056;2023-02-01T09:46:29;3.00;99.90
34147;DHT22;20423;49.448;9.056;2023-02-01T09:49:01;3.00;99.90
34147;DHT22;20423;49.448;9.056;2023-02-01T09:51:37;2.90;99.90
34147;DHT22;20423;49.448;9.056;2023-02-01T09:54:08;2.90;99.90
34147;DHT22;20423;49.448;9.056;2023-02-01T09:56:44;2.90;99.90
34147;DHT22;20423;49.448;9.056;2023-02-01T10:01:47;3.20;99.90
34147;DHT22;20423;49.448;9.056;2023-02-01T10:04:14;3.40;99.90
34147;DHT22;20423;49.448;9.056;2023-02-01T10:09:42;3.70;99.90
34147;DHT22;20423;49.448;9.056;2023-02-01T10:15:32;3.40;99.90
34147;DHT22;20423;49.448;9.056;2023-02-01T10:29:03;3.20;99.90
34147;DHT22;20423;49.448;9.056;2023-02-01T10:31:33;3.10;99.90
34147;DHT22;20423;49.448;9.056;2023-02-01T10:34:07;3.10;99.90
34147;DHT22;20423;49.448;9.056;2023-02-01T10:36:42;3.10;99.90
34147;DHT22;20423;49.448;9.056;2023-02-01T10:39:14;3.10;99.90
34147;DHT22;20423;49.448;9.056;2023-02-01T10:41:40;3.10;99.90
34147;DHT22;20423;49.448;9.056;2023-02-01T10:44:16;3.00;99.90
34147;DHT22;20423;49.448;9.056;2023-02-01T10:46:43;3.00;99.90
34147;DHT22;20423;49.448;9.056;2023-02-01T10:49:58;3.00;99.90
34147;DHT22;20423;49.448;9.056;2023-02-01T10:52:15;3.00;99.90
34147;DHT22;20423;49.448;9.056;2023-02-01T10:54:42;2.90;99.90
34147;DHT22;20423;49.448;9.056;2023-02-01T10:57:10;3.00;99.90
34147;DHT22;20423;49.448;9.056;2023-02-01T10:59:36;3.00;99.90
34147;DHT22;20423;49.448;9.056;2023-02-01T11:02:26;2.90;99.90
34147;DHT22;20423;49.448;9.056;2023-02-01T11:05:42;2.90;99.90
34147;DHT22;20423;49.448;9.056;2023-02-01T11:08:15;3.00;99.90
34147;DHT22;20423;49.448;9.056;2023-02-01T11:10:42;3.00;99.90
34147;DHT22;20423;49.448;9.056;2023-02-01T11:13:15;3.00;99.90
34147;DHT22;20423;49.448;9.056;2023-02-01T11:15:46;3.10;99.90
34147;DHT22;20423;49.448;9.056;2023-02-01T11:21:33;3.20;99.90
34147;DHT22;20423;49.448;9.056;2023-02-01T11:24:05;3.20;99.90
34147;DHT22;20423;49.448;9.056;2023-02-01T11:26:40;3.10;99.90
34147;DHT22;20423;49.448;9.056;2023-02-01T11:29:12;3.10;99.90
34147;DHT22;20423;49.448;9.056;2023-02-01T11:31:39;3.00;99.90
34147;DHT22;20423;49.448;9.056;2023-02-01T11:34:07;3.10;99.90
34147;DHT22;20423;49.448;9.056;2023-02-01T11:36:35;3.20;99.90
34147;DHT22;20423;49.448;9.056;2023-02-01T11:41:57;3.30;99.90
34147;DHT22;20423;49.448;9.056;2023-02-01T11:44:38;3.30;99.90
34147;DHT22;20423;49.448;9.056;2023-02-01T11:49:58;3.30;99.90
34147;DHT22;20423;49.448;9.056;2023-02-01T11:56:24;3.50;99.90
34147;DHT22;20423;49.448;9.056;2023-02-01T11:59:23;3.70;99.90
34147;DHT22;20423;49.448;9.056;2023-02-01T12:11:05;3.40;99.90
34147;DHT22;20423;49.448;9.056;2023-02-01T12:17:00;3.30;99.90
34147;DHT22;20423;49.448;9.056;2023-02-01T12:19:38;3.30;99.90
34147;DHT22;20423;49.448;9.056;2023-02-01T12:22:11;3.40;99.90
34147;DHT22;20423;49.448;9.056;2023-02-01T12:25:09;3.60;99.90
34147;DHT22;20423;49.448;9.056;2023-02-01T12:27:59;3.70;99.90
34147;DHT22;20423;49.448;9.056;2023-02-01T12:30:58;3.80;99.90
34147;DHT22;20423;49.448;9.056;2023-02-01T12:44:47;3.40;99.90
34147;DHT22;20423;49.448;9.056;2023-02-01T12:52:55;3.20;99.90
34147;DHT22;20423;49.448;9.056;2023-02-01T12:55:36;3.20;99.90
34147;DHT22;20423;49.448;9.056;2023-02-01T13:00:57;3.20;99.90
34147;DHT22;20423;49.448;9.056;2023-02-01T13:06:07;3.10;99.90
34147;DHT22;20423;49.448;9.056;2023-02-01T13:09:00;3.10;99.90
34147;DHT22;20423;49.448;9.056;2023-02-01T13:11:38;3.00;99.90
34147;DHT22;20423;49.448;9.056;2023-02-01T13:14:23;3.00;99.90
34147;DHT22;20423;49.448;9.056;2023-02-01T13:16:57;2.90;99.90
34147;DHT22;20423;49.448;9.056;2023-02-01T13:22:24;2.90;99.90
34147;DHT22;20423;49.448;9.056;2023-02-01T13:28:16;3.00;99.90
34147;DHT22;20423;49.448;9.056;2023-02-01T13:31:05;3.00;99.90
34147;DHT22;20423;49.448;9.056;2023-02-01T13:36:42;3.00;99.90
34147;DHT22;20423;49.448;9.056;2023-02-01T13:39:48;3.00;99.90
34147;DHT22;20423;49.448;9.056;2023-02-01T13:42:23;2.90;99.90
34147;DHT22;20423;49.448;9.056;2023-02-01T13:47:32;2.80;99.90
34147;DHT22;20423;49.448;9.056;2023-02-01T13:50:19;2.90;99.90
34147;DHT22;20423;49.448;9.056;2023-02-01T13:52:53;2.90;99.90
34147;DHT22;20423;49.448;9.056;2023-02-01T13:57:46;2.90;99.90
34147;DHT22;20423;49.448;9.056;2023-02-01T14:10:54;2.90;99.90
34147;DHT22;20423;49.448;9.056;2023-02-01T14:13:42;3.00;99.90
34147;DHT22;20423;49.448;9.056;2023-02-01T14:16:13;3.00;99.90
34147;DHT22;20423;49.448;9.056;2023-02-01T14:29:40;3.10;99.90
34147;DHT22;20423;49.448;9.056;2023-02-01T14:32:17;3.10;99.90
34147;DHT22;20423;49.448;9.056;2023-02-01T14:34:50;3.10;99.90
34147;DHT22;20423;49.448;9.056;2023-02-01T14:42:45;3.10;99.90
34147;DHT22;20423;49.448;9.056;2023-02-01T15:00:58;3.20;99.90
34147;DHT22;20423;49.448;9.056;2023-02-01T15:08:48;3.20;99.90
34147;DHT22;20423;49.448;9.056;2023-02-01T15:11:16;3.20;99.90
34147;DHT22;20423;49.448;9.056;2023-02-01T15:13:49;3.20;99.90
34147;DHT22;20423;49.448;9.056;2023-02-01T15:16:16;3.10;99.90
34147;DHT22;20423;49.448;9.056;2023-02-01T15:18:49;3.10;99.90
34147;DHT22;20423;49.448;9.056;2023-02-01T15:21:22;3.10;99.90
34147;DHT22;20423;49.448;9.056;2023-02-01T15:23:48;3.20;99.90
34147;DHT22;20423;49.448;9.056;2023-02-01T15:26:31;3.20;99.90
34147;DHT22;20423;49.448;9.056;2023-02-01T15:28:58;3.30;99.90
34147;DHT22;20423;49.448;9.056;2023-02-01T15:31:38;3.30;99.90
34147;DHT22;20423;49.448;9.056;2023-02-01T15:34:06;3.40;99.90
34147;DHT22;20423;49.448;9.056;2023-02-01T15:36:32;3.40;99.90
34147;DHT22;20423;49.448;9.056;2023-02-01T15:39:34;3.30;99.90
34147;DHT22;20423;49.448;9.056;2023-02-01T15:42:11;3.30;99.90
34147;DHT22;20423;49.448;9.056;2023-02-01T15:44:43;3.30;99.90
34147;DHT22;20423;49.448;9.056;2023-02-01T15:47:25;3.30;99.90
34147;DHT22;20423;49.448;9.056;2023-02-01T15:49:59;3.30;99.90
34147;DHT22;20423;49.448;9.056;2023-02-01T15:55:07;3.30;99.90
34147;DHT22;20423;49.448;9.056;2023-02-01T15:57:36;3.30;99.90
34147;DHT22;20423;49.448;9.056;2023-02-01T16:00:18;3.30;99.90
34147;DHT22;20423;49.448;9.056;2023-02-01T16:02:57;3.30;99.90
34147;DHT22;20423;49.448;9.056;2023-02-01T16:05:42;3.30;99.90
34147;DHT22;20423;49.448;9.056;2023-02-01T16:08:25;3.30;99.90
34147;DHT22;20423;49.448;9.056;2023-02-01T16:10:54;3.40;99.90
34147;DHT22;20423;49.448;9.056;2023-02-01T16:13:20;3.30;99.90
34147;DHT22;20423;49.448;9.056;2023-02-01T16:15:47;3.30;99.90
34147;DHT22;20423;49.448;9.056;2023-02-01T16:18:15;3.30;99.90
34147;DHT22;20423;49.448;9.056;2023-02-01T16:20:42;3.40;99.90
34147;DHT22;20423;49.448;9.056;2023-02-01T16:23:08;3.30;99.90
34147;DHT22;20423;49.448;9.056;2023-02-01T16:25:40;3.40;99.90
34147;DHT22;20423;49.448;9.056;2023-02-01T16:28:05;3.40;99.90
34147;DHT22;20423;49.448;9.056;2023-02-01T16:30:32;3.40;99.90
34147;DHT22;20423;49.448;9.056;2023-02-01T16:32:59;3.40;99.90
34147;DHT22;20423;49.448;9.056;2023-02-01T16:35:30;3.40;99.90
34147;DHT22;20423;49.448;9.056;2023-02-01T16:38:04;3.50;99.90
34147;DHT22;20423;49.448;9.056;2023-02-01T16:40:34;3.40;99.90
34147;DHT22;20423;49.448;9.056;2023-02-01T16:43:00;3.40;99.90
34147;DHT22;20423;49.448;9.056;2023-02-01T16:45:28;3.50;99.90
34147;DHT22;20423;49.448;9.056;2023-02-01T16:47:57;3.50;99.90
34147;DHT22;20423;49.448;9.056;2023-02-01T16:50:26;3.60;99.90
34147;DHT22;20423;49.448;9.056;2023-02-01T16:52:59;3.50;99.90
34147;DHT22;20423;49.448;9.056;2023-02-01T16:55:36;3.60;99.90
34147;DHT22;20423;49.448;9.056;2023-02-01T16:58:02;3.50;99.90
34147;DHT22;20423;49.448;9.056;2023-02-01T17:00:27;3.60;99.90
34147;DHT22;20423;49.448;9.056;2023-02-01T17:02:56;3.50;99.90
34147;DHT22;20423;49.448;9.056;2023-02-01T17:05:25;3.50;99.90
34147;DHT22;20423;49.448;9.056;2023-02-01T17:07:51;3.50;99.90
34147;DHT22;20423;49.448;9.056;2023-02-01T17:10:26;3.50;99.90
34147;DHT22;20423;49.448;9.056;2023-02-01T17:12:52;3.50;99.90
34147;DHT22;20423;49.448;9.056;2023-02-01T17:15:18;3.50;99.90
34147;DHT22;20423;49.448;9.056;2023-02-01T17:17:51;3.50;99.90
34147;DHT22;20423;49.448;9.056;2023-02-01T17:20:22;3.50;99.90
34147;DHT22;20423;49.448;9.056;2023-02-01T17:22:50;3.50;99.90
34147;DHT22;20423;49.448;9.056;2023-02-01T17:25:22;3.50;99.90
34147;DHT22;20423;49.448;9.056;2023-02-01T17:27:48;3.50;99.90
34147;DHT22;20423;49.448;9.056;2023-02-01T17:30:15;3.50;99.90
34147;DHT22;20423;49.448;9.056;2023-02-01T17:32:41;3.50;99.90
34147;DHT22;20423;49.448;9.056;2023-02-01T17:35:19;3.60;99.90
34147;DHT22;20423;49.448;9.056;2023-02-01T17:37:46;3.60;99.90
34147;DHT22;20423;49.448;9.056;2023-02-01T17:40:12;3.60;99.90
34147;DHT22;20423;49.448;9.056;2023-02-01T17:42:38;3.50;99.90
34147;DHT22;20423;49.448;9.056;2023-02-01T17:45:44;3.50;99.90
34147;DHT22;20423;49.448;9.056;2023-02-01T17:48:21;3.60;99.90
34147;DHT22;20423;49.448;9.056;2023-02-01T17:50:48;3.50;99.90
34147;DHT22;20423;49.448;9.056;2023-02-01T17:53:19;3.50;99.90
34147;DHT22;20423;49.448;9.056;2023-02-01T17:55:50;3.60;99.90
34147;DHT22;20423;49.448;9.056;2023-02-01T17:58:17;3.60;99.90
34147;DHT22;20423;49.448;9.056;2023-02-01T18:00:44;3.60;99.90
34147;DHT22;20423;49.448;9.056;2023-02-01T18:03:22;3.60;99.90
34147;DHT22;20423;49.448;9.056;2023-02-01T18:05:52;3.60;99.90
34147;DHT22;20423;49.448;9.056;2023-02-01T18:08:28;3.60;99.90
34147;DHT22;20423;49.448;9.056;2023-02-01T18:11:10;3.50;99.90
34147;DHT22;20423;49.448;9.056;2023-02-01T18:13:38;3.50;99.90
34147;DHT22;20423;49.448;9.056;2023-02-01T18:16:04;3.50;99.90
34147;DHT22;20423;49.448;9.056;2023-02-01T18:18:30;3.50;99.90
34147;DHT22;20423;49.448;9.056;2023-02-01T18:21:00;3.60;99.90
34147;DHT22;20423;49.448;9.056;2023-02-01T18:23:29;3.60;99.90
34147;DHT22;20423;49.448;9.056;2023-02-01T18:25:55;3.50;99.90
34147;DHT22;20423;49.448;9.056;2023-02-01T18:28:21;3.50;99.90
34147;DHT22;20423;49.448;9.056;2023-02-01T18:30:48;3.50;99.90
34147;DHT22;20423;49.448;9.056;2023-02-01T18:33:19;3.40;99.90
34147;DHT22;20423;49.448;9.056;2023-02-01T18:35:45;3.50;99.90
34147;DHT22;20423;49.448;9.056;2023-02-01T18:38:11;3.50;99.90
34147;DHT22;20423;49.448;9.056;2023-02-01T18:43:11;3.60;99.90
34147;DHT22;20423;49.448;9.056;2023-02-01T18:45:45;3.50;99.90
34147;DHT22;20423;49.448;9.056;2023-02-01T18:48:13;3.50;99.90
34147;DHT22;20423;49.448;9.056;2023-02-01T18:50:42;3.60;99.90
34147;DHT22;20423;49.448;9.056;2023-02-01T18:53:26;3.60;99.90
34147;DHT22;20423;49.448;9.056;2023-02-01T18:55:53;3.50;99.90
34147;DHT22;20423;49.448;9.056;2023-02-01T18:58:19;3.50;99.90
34147;DHT22;20423;49.448;9.056;2023-02-01T19:00:45;3.50;99.90
34147;DHT22;20423;49.448;9.056;2023-02-01T19:03:15;3.50;99.90
34147;DHT22;20423;49.448;9.056;2023-02-01T19:05:41;3.70;99.90
34147;DHT22;20423;49.448;9.056;2023-02-01T19:08:07;3.50;99.90
34147;DHT22;20423;49.448;9.056;2023-02-01T19:10:33;3.50;99.90
34147;DHT22;20423;49.448;9.056;2023-02-01T19:13:00;3.50;99.90
34147;DHT22;20423;49.448;9.056;2023-02-01T19:15:31;3.50;99.90
34147;DHT22;20423;49.448;9.056;2023-02-01T19:17:59;3.50;99.90